Time;durP1;ratioP1;P1;durP2;ratioP2;P2;SDS_P1;SDS_P2;PMS_P1;PMS_P2;Temp;Humidity;BMP_temperature;BMP_pressure;BME280_temperature;BME280_humidity;BME280_pressure;Samples;Min_cycle;Max_cycle;Signal;HPM_P1;HPM_P2
2022/11/07 00:01:19;;;;;;;0.60;0.60;;;;;;;16.70;49.17;93238.22;5054555;28;20526;-87
2022/11/07 00:03:44;;;;;;;1.35;0.50;;;;;;;16.68;49.34;93244.19;5053845;28;20040;-87
2022/11/07 00:06:09;;;;;;;0.95;0.40;;;;;;;16.68;49.35;93252.38;5054503;28;20510;-87
2022/11/07 00:08:35;;;;;;;0.52;0.50;;;;;;;16.69;49.21;93247.66;5038255;28;20040;-86
2022/11/07 00:11:00;;;;;;;0.65;0.50;;;;;;;16.68;49.28;93249.66;5050687;28;20035;-86
2022/11/07 00:13:26;;;;;;;0.60;0.50;;;;;;;16.70;49.86;93251.88;5017465;28;20054;-87
2022/11/07 00:15:54;;;;;;;0.75;0.57;;;;;;;16.68;49.25;93254.38;5018443;28;20033;-86
2022/11/07 00:18:19;;;;;;;0.65;0.55;;;;;;;16.68;49.52;93255.09;5041230;28;20040;-86
2022/11/07 00:20:45;;;;;;;0.77;0.63;;;;;;;16.72;49.19;93254.84;5038163;28;20031;-86
2022/11/07 00:23:10;;;;;;;1.42;1.02;;;;;;;16.69;49.27;93264.03;5050407;28;20040;-87
2022/11/07 00:25:35;;;;;;;2.13;0.68;;;;;;;16.69;49.12;93258.56;5039581;28;20037;-86
2022/11/07 00:28:01;;;;;;;0.50;0.50;;;;;;;16.68;49.01;93255.09;5055494;28;20456;-86
2022/11/07 00:30:26;;;;;;;0.52;0.50;;;;;;;16.70;49.30;93258.06;5039354;28;20137;-86
2022/11/07 00:32:52;;;;;;;0.70;0.50;;;;;;;16.67;49.58;93259.06;5041338;28;20470;-85
2022/11/07 00:35:17;;;;;;;1.15;0.70;;;;;;;16.70;49.39;93263.53;5053687;28;20040;-87
2022/11/07 00:37:42;;;;;;;0.70;0.60;;;;;;;16.71;49.06;93269.72;5072845;28;20044;-86
2022/11/07 00:40:08;;;;;;;0.98;0.90;;;;;;;16.73;49.18;93267.25;5072658;28;20047;-86
2022/11/07 00:42:34;;;;;;;0.93;0.65;;;;;;;16.67;49.19;93259.06;5069485;28;20028;-86
2022/11/07 00:44:59;;;;;;;0.98;0.70;;;;;;;16.69;49.29;93261.31;5091232;28;20093;-86
2022/11/07 00:47:24;;;;;;;0.68;0.50;;;;;;;16.66;49.46;93268.53;5055871;28;20402;-86
2022/11/07 00:49:50;;;;;;;0.30;0.30;;;;;;;16.66;49.21;93268.53;5074293;28;20042;-86
2022/11/07 00:52:15;;;;;;;0.68;0.60;;;;;;;16.67;48.93;93275.44;5090111;28;20044;-86
2022/11/07 00:54:41;;;;;;;1.00;0.80;;;;;;;16.67;49.39;93280.19;5040105;28;20044;-86
2022/11/07 00:57:06;;;;;;;0.60;0.50;;;;;;;16.71;49.05;93288.84;5036309;28;20118;-87
2022/11/07 00:59:31;;;;;;;0.65;0.63;;;;;;;16.68;49.10;93293.31;5061356;28;20498;-86
2022/11/07 01:01:57;;;;;;;1.02;0.70;;;;;;;16.68;49.07;93292.56;5054077;28;20044;-87
2022/11/07 01:07:06;;;;;;;1.15;0.80;;;;;;;16.68;48.73;93296.03;5058321;28;20046;-86
2022/11/07 01:09:31;;;;;;;0.70;0.68;;;;;;;16.67;49.17;93302.75;5065388;28;20036;-86
2022/11/07 01:11:57;;;;;;;0.65;0.55;;;;;;;16.67;49.34;93302.03;5070146;28;20047;-86
2022/11/07 01:14:22;;;;;;;1.42;0.68;;;;;;;16.71;49.46;93307.94;5066348;28;20039;-86
2022/11/07 01:16:48;;;;;;;0.70;0.70;;;;;;;16.70;49.33;93315.41;5073809;28;20043;-86
2022/11/07 01:19:13;;;;;;;0.82;0.50;;;;;;;16.70;49.54;93307.22;5058455;28;20422;-87
2022/11/07 01:21:39;;;;;;;0.63;0.45;;;;;;;16.66;49.37;93308.72;5053652;28;20059;-86
2022/11/07 01:24:06;;;;;;;0.63;0.60;;;;;;;16.70;49.34;93306.47;5072072;28;20032;-85
2022/11/07 01:26:31;;;;;;;1.08;0.85;;;;;;;16.67;48.99;93313.66;5090262;28;20035;-86
2022/11/07 01:28:56;;;;;;;1.55;0.90;;;;;;;16.70;49.11;93306.47;5072094;28;20043;-86
2022/11/07 01:31:22;;;;;;;2.30;0.85;;;;;;;16.68;49.14;93317.88;5072466;28;20051;-85
2022/11/07 01:33:47;;;;;;;1.10;0.60;;;;;;;16.70;49.28;93320.84;5048918;28;20036;-86
2022/11/07 01:36:14;;;;;;;1.23;0.90;;;;;;;16.70;49.44;93320.09;5052858;28;20036;-86
2022/11/07 01:38:42;;;;;;;1.02;0.65;;;;;;;16.67;49.22;93321.13;5056026;28;20136;-86
2022/11/07 01:41:20;;;;;;;1.05;0.90;;;;;;;16.66;48.90;93331.31;5069431;28;20182;-86
2022/11/07 01:43:57;;;;;;;1.27;0.68;;;;;;;16.65;49.15;93324.38;5066367;28;20292;-85
2022/11/07 01:46:28;;;;;;;0.82;0.80;;;;;;;16.68;49.30;93328.06;5072686;28;20489;-86
2022/11/07 01:49:05;;;;;;;0.55;0.55;;;;;;;16.67;49.26;93321.13;5082217;28;20101;-86
2022/11/07 01:51:33;;;;;;;1.77;0.90;;;;;;;16.69;49.45;93315.91;5053477;28;20046;-86
2022/11/07 01:53:58;;;;;;;6.85;1.00;;;;;;;16.67;49.15;93321.84;5041782;28;20052;-86
2022/11/07 01:56:25;;;;;;;2.40;1.00;;;;;;;16.65;49.07;93321.63;5055829;28;20357;-86
2022/11/07 01:58:51;;;;;;;0.90;0.80;;;;;;;16.65;48.95;93316.19;5048884;28;20176;-86
2022/11/07 02:01:17;;;;;;;0.55;0.50;;;;;;;16.68;49.07;93319.88;5053540;28;20047;-87
2022/11/07 02:03:42;;;;;;;0.90;0.80;;;;;;;16.68;49.15;93333.50;5067980;28;20555;-87
2022/11/07 02:06:09;;;;;;;1.30;0.63;;;;;;;16.64;49.37;93322.88;5035598;28;20040;-86
2022/11/07 02:08:36;;;;;;;0.65;0.55;;;;;;;16.66;49.38;93336.78;5052108;28;20036;-86
2022/11/07 02:11:01;;;;;;;1.23;0.80;;;;;;;16.64;48.89;93349.44;5059604;28;20119;-87
2022/11/07 02:13:27;;;;;;;1.05;0.95;;;;;;;16.63;49.30;93345.19;5068863;28;20126;-86
2022/11/07 02:15:53;;;;;;;0.50;0.50;;;;;;;16.65;49.37;93348.94;5052912;28;20523;-86
2022/11/07 02:18:18;;;;;;;0.52;0.52;;;;;;;16.64;49.28;93354.88;5057780;28;20080;-86
2022/11/07 02:20:44;;;;;;;0.63;0.50;;;;;;;16.67;49.63;93370.25;5053162;28;20047;-86
2022/11/07 02:23:17;;;;;;;0.77;0.60;;;;;;;16.65;49.25;93365.31;5051876;28;20516;-86
2022/11/07 02:25:42;;;;;;;0.60;0.60;;;;;;;16.66;49.30;93369.53;5053421;28;20086;-86
2022/11/07 02:28:08;;;;;;;1.00;0.70;;;;;;;16.63;49.33;93362.31;5035863;28;20044;-85
2022/11/07 02:30:33;;;;;;;0.50;0.50;;;;;;;16.64;49.21;93365.81;5072525;28;20051;-87
2022/11/07 02:32:59;;;;;;;0.85;0.60;;;;;;;16.64;49.46;93361.09;5072420;28;20039;-87
2022/11/07 02:35:35;;;;;;;0.35;0.32;;;;;;;16.67;49.41;93364.81;5050131;28;20036;-86
2022/11/07 02:38:02;;;;;;;0.80;0.60;;;;;;;16.67;49.27;93362.06;5069266;28;20040;-86
2022/11/07 02:40:28;;;;;;;0.68;0.68;;;;;;;16.63;49.19;93364.28;5053193;28;20039;-86
2022/11/07 02:42:53;;;;;;;0.50;0.50;;;;;;;16.64;49.19;93374.00;5053315;28;20097;-86
2022/11/07 02:45:22;;;;;;;0.50;0.50;;;;;;;16.64;49.14;93369.28;5066312;28;20043;-86
2022/11/07 02:47:48;;;;;;;1.02;0.60;;;;;;;16.62;49.12;93369.00;5073126;28;20051;-86
2022/11/07 02:50:13;;;;;;;0.90;0.70;;;;;;;16.65;48.87;93364.56;5039961;28;20097;-86
2022/11/07 02:52:39;;;;;;;1.73;0.52;;;;;;;16.64;49.01;93361.09;5052465;28;20371;-86
2022/11/07 02:55:05;;;;;;;0.77;0.55;;;;;;;16.63;49.53;93364.28;5052151;28;20105;-86
2022/11/07 02:57:30;;;;;;;0.85;0.70;;;;;;;16.64;49.09;93361.09;5067745;28;20043;-86
2022/11/07 02:59:56;;;;;;;1.77;0.70;;;;;;;16.65;49.13;93364.56;5051879;28;20040;-86
2022/11/07 03:02:22;;;;;;;1.00;0.68;;;;;;;16.65;48.95;93357.13;5051525;28;20058;-87
2022/11/07 03:04:47;;;;;;;4.15;0.70;;;;;;;16.66;49.01;93361.34;5066883;28;20038;-86
2022/11/07 03:07:13;;;;;;;0.77;0.50;;;;;;;16.64;48.84;93360.34;5072014;28;20044;-86
2022/11/07 03:09:38;;;;;;;1.65;0.90;;;;;;;16.62;49.05;93352.63;5075783;28;20505;-86
2022/11/07 03:12:04;;;;;;;0.88;0.50;;;;;;;16.63;49.04;93350.63;5058306;28;20096;-86
2022/11/07 03:14:29;;;;;;;1.35;0.80;;;;;;;16.64;49.25;93365.81;5067683;28;20172;-87
2022/11/07 03:16:54;;;;;;;0.70;0.70;;;;;;;16.63;49.15;93359.59;5039112;28;20032;-86
2022/11/07 03:19:20;;;;;;;1.05;0.80;;;;;;;16.63;49.30;93356.09;5080797;28;20051;-86
2022/11/07 03:21:45;;;;;;;0.80;0.70;;;;;;;16.64;49.29;93361.09;5039368;28;20047;-86
2022/11/07 03:24:11;;;;;;;1.00;0.90;;;;;;;16.64;48.87;93361.09;5068715;28;20043;-86
2022/11/07 03:26:36;;;;;;;1.13;0.90;;;;;;;16.65;49.14;93359.09;5075238;28;20035;-86
2022/11/07 03:29:01;;;;;;;0.55;0.55;;;;;;;16.63;49.37;93354.13;5067141;28;20028;-85
2022/11/07 03:31:27;;;;;;;1.20;1.10;;;;;;;16.62;48.79;93352.63;5051655;28;20037;-86
2022/11/07 03:33:52;;;;;;;0.70;0.70;;;;;;;16.65;49.31;93356.38;5035414;28;20499;-86
2022/11/07 03:36:17;;;;;;;1.13;0.90;;;;;;;16.63;49.25;93347.91;5035667;28;20036;-86
2022/11/07 03:38:43;;;;;;;1.27;0.90;;;;;;;16.61;49.26;93336.75;5072147;28;20040;-86
2022/11/07 03:41:08;;;;;;;1.15;0.95;;;;;;;16.60;49.23;93344.19;5071272;28;20037;-86
2022/11/07 03:43:34;;;;;;;1.13;0.88;;;;;;;16.64;48.98;93352.91;5066146;28;20429;-86
2022/11/07 03:45:59;;;;;;;1.52;0.85;;;;;;;16.62;49.10;93360.06;5050782;28;20556;-86
2022/11/07 03:48:24;;;;;;;0.77;0.70;;;;;;;16.63;49.24;93359.59;5049125;28;20367;-86
2022/11/07 03:50:50;;;;;;;1.10;0.77;;;;;;;16.62;49.19;93358.09;5054571;28;20040;-86
2022/11/07 03:53:15;;;;;;;0.73;0.73;;;;;;;16.63;49.18;93369.75;5051326;28;20047;-87
2022/11/07 03:55:41;;;;;;;0.77;0.70;;;;;;;16.63;49.08;93383.38;5035383;28;20036;-86
2022/11/07 03:58:07;;;;;;;1.05;0.88;;;;;;;16.65;48.91;93386.41;5051176;28;20041;-85
2022/11/07 04:00:33;;;;;;;0.85;0.65;;;;;;;16.62;48.96;93384.63;5051277;28;20049;-86
2022/11/07 04:02:58;;;;;;;1.35;0.95;;;;;;;16.61;49.38;93381.16;5051827;28;20558;-86
2022/11/07 04:05:24;;;;;;;1.05;0.82;;;;;;;16.63;49.03;93388.84;5063720;28;20396;-86
2022/11/07 04:07:49;;;;;;;0.93;0.70;;;;;;;16.63;48.80;93395.06;5063973;28;20037;-86
2022/11/07 04:10:15;;;;;;;0.70;0.60;;;;;;;16.63;48.73;93395.06;5050926;28;20423;-86
2022/11/07 04:18:08;;;;;;;1.55;0.60;;;;;;;16.63;49.33;93397.03;5061516;28;20039;-86
2022/11/07 04:20:33;;;;;;;0.60;0.55;;;;;;;16.63;49.15;93407.94;5054497;28;20028;-86
2022/11/07 04:22:59;;;;;;;0.80;0.80;;;;;;;16.61;49.06;93403.00;5070968;28;20047;-87
2022/11/07 04:28:08;;;;;;;0.68;0.65;;;;;;;16.60;48.86;93419.88;5080168;28;20048;-86
2022/11/07 04:30:34;;;;;;;1.77;0.70;;;;;;;16.62;48.96;93414.66;5061329;28;20032;-86
2022/11/07 04:33:00;;;;;;;0.85;0.70;;;;;;;16.64;48.77;93412.94;5054198;28;20040;-86
2022/11/07 04:35:27;;;;;;;0.77;0.70;;;;;;;16.61;48.99;93413.91;5053055;28;20502;-86
2022/11/07 04:37:52;;;;;;;0.90;0.70;;;;;;;16.59;48.84;93415.66;5038007;28;20059;-86
2022/11/07 04:40:18;;;;;;;0.93;0.70;;;;;;;16.60;49.41;93415.16;5053753;28;20494;-86
2022/11/07 04:42:44;;;;;;;1.20;0.98;;;;;;;16.61;49.13;93408.44;5054341;28;20105;-86
2022/11/07 04:45:10;;;;;;;0.52;0.52;;;;;;;16.63;49.23;93416.13;5036683;28;20124;-86
2022/11/07 04:47:35;;;;;;;0.60;0.60;;;;;;;16.62;49.18;93403.72;5033020;28;20036;-86
2022/11/07 04:50:01;;;;;;;0.60;0.60;;;;;;;16.63;49.29;93413.41;5086748;28;20482;-87
2022/11/07 04:52:26;;;;;;;2.17;0.85;;;;;;;16.65;49.37;93416.41;5054076;28;20085;-88
2022/11/07 04:54:52;;;;;;;0.50;0.50;;;;;;;16.66;48.95;93409.72;5037468;28;20055;-86
2022/11/07 04:57:18;;;;;;;0.95;0.70;;;;;;;16.68;48.87;93420.84;5037848;28;20044;-88
2022/11/07 04:59:43;;;;;;;0.50;0.50;;;;;;;16.71;48.98;93422.59;5040229;28;20109;-87
2022/11/07 05:02:10;;;;;;;0.65;0.60;;;;;;;16.67;49.09;93420.09;5033083;28;20036;-87
2022/11/07 05:04:35;;;;;;;8.77;1.50;;;;;;;16.65;49.02;93422.63;5022854;28;20479;-86
2022/11/07 05:07:01;;;;;;;0.55;0.47;;;;;;;16.67;49.27;93422.13;5035352;28;20055;-89
2022/11/07 05:09:26;;;;;;;2.22;0.60;;;;;;;16.63;49.37;93429.78;5061855;28;20036;-88
2022/11/07 05:11:52;;;;;;;1.30;0.82;;;;;;;16.60;48.99;93436.25;5028122;28;20059;-88
2022/11/07 05:14:18;;;;;;;1.20;0.70;;;;;;;16.60;48.84;93436.25;5041832;28;20044;-88
2022/11/07 05:16:43;;;;;;;1.10;0.80;;;;;;;16.59;48.95;93440.94;5050244;28;20279;-88
2022/11/07 05:19:15;;;;;;;2.80;0.95;;;;;;;16.59;49.19;93443.69;5033771;28;20033;-88
2022/11/07 05:21:40;;;;;;;0.70;0.70;;;;;;;16.57;49.22;93443.44;5019292;28;20041;-88
2022/11/07 05:24:06;;;;;;;2.10;0.90;;;;;;;16.59;49.04;93449.13;5033273;28;20048;-89
2022/11/07 05:26:31;;;;;;;2.22;1.00;;;;;;;16.59;48.91;93462.03;5063064;28;20086;-89
2022/11/07 05:28:57;;;;;;;4.78;0.70;;;;;;;16.61;49.18;93452.13;5058075;28;20040;-87
2022/11/07 05:31:22;;;;;;;0.90;0.60;;;;;;;16.65;49.25;93446.44;5056960;28;20040;-86
2022/11/07 05:33:48;;;;;;;5.60;3.85;;;;;;;16.70;49.42;93456.59;5071980;28;20809;-88
2022/11/07 05:36:15;;;;;;;12.73;9.18;;;;;;;16.69;49.73;93457.81;5066526;28;20063;-90
2022/11/07 05:38:41;;;;;;;6.00;3.25;;;;;;;16.76;49.64;93451.88;5076622;28;20036;-88
2022/11/07 05:41:07;;;;;;;217.40;133.48;;;;;;;16.75;49.30;93461.31;5085050;28;20040;-90
2022/11/07 05:43:32;;;;;;;36.92;17.95;;;;;;;16.79;49.71;93457.06;5070776;28;20035;-87
2022/11/07 05:45:58;;;;;;;10.57;6.93;;;;;;;16.76;49.33;93451.88;5047209;28;20047;-91
2022/11/07 05:48:24;;;;;;;26.02;10.32;;;;;;;16.76;49.02;93460.06;5064990;28;20048;-91
2022/11/07 05:50:49;;;;;;;25.30;12.57;;;;;;;16.73;48.77;93455.59;5069763;28;20056;-91
2022/11/07 05:53:15;;;;;;;42.25;15.07;;;;;;;16.72;48.75;93463.03;5073407;28;20637;-89
2022/11/07 05:55:40;;;;;;;33.97;11.57;;;;;;;16.71;48.77;93467.00;5066645;28;20066;-87
2022/11/07 05:58:11;;;;;;;20.30;9.43;;;;;;;16.67;48.79;93460.34;5046914;28;20044;-89
2022/11/07 06:00:39;;;;;;;43.53;15.57;;;;;;;16.68;49.26;93462.53;5048024;28;20502;-88
2022/11/07 06:03:05;;;;;;;21.77;11.73;;;;;;;16.66;48.92;93467.78;5097140;28;20054;-88
2022/11/07 06:05:31;;;;;;;19.23;8.07;;;;;;;16.68;49.06;93476.19;5070652;28;20032;-87
2022/11/07 06:07:56;;;;;;;22.40;9.45;;;;;;;16.68;48.96;93469.97;5086015;28;20048;-87
2022/11/07 06:10:22;;;;;;;20.20;10.25;;;;;;;16.69;49.20;93479.66;5049802;28;20047;-88
2022/11/07 06:12:58;;;;;;;24.17;11.82;;;;;;;16.70;49.29;93483.88;5063981;28;20203;-90
2022/11/07 06:15:24;;;;;;;21.15;10.38;;;;;;;16.71;49.13;93485.38;5068053;28;20115;-90
2022/11/07 06:17:49;;;;;;;20.60;10.23;;;;;;;16.70;49.21;93486.59;5046118;28;20040;-89
2022/11/07 06:20:15;;;;;;;23.45;11.63;;;;;;;16.68;49.22;93489.09;5048505;28;20100;-90
2022/11/07 06:22:40;;;;;;;31.77;14.82;;;;;;;16.74;48.87;93487.84;5075384;28;20044;-88
2022/11/07 06:25:06;;;;;;;25.38;13.10;;;;;;;16.69;49.09;93487.84;5067720;28;20125;-91
2022/11/07 06:27:31;;;;;;;27.73;13.32;;;;;;;16.66;49.03;93492.34;5058605;28;20040;-91
2022/11/07 06:29:57;;;;;;;22.52;11.63;;;;;;;16.65;49.58;93484.66;5045787;28;20511;-90
2022/11/07 06:32:22;;;;;;;24.17;10.85;;;;;;;16.70;49.06;93497.53;5051822;28;20585;-89
2022/11/07 06:34:48;;;;;;;19.75;10.50;;;;;;;16.70;49.25;93509.19;5032534;28;20086;-90
2022/11/07 06:37:13;;;;;;;23.90;10.57;;;;;;;16.72;49.31;93501.25;5047440;28;20093;-90
2022/11/07 06:39:38;;;;;;;18.55;8.90;;;;;;;16.71;49.03;93496.28;5040791;28;20043;-89
2022/11/07 06:42:04;;;;;;;28.48;12.68;;;;;;;16.70;49.21;93503.72;5049690;28;20066;-88
2022/11/07 06:44:29;;;;;;;32.67;15.70;;;;;;;16.71;49.11;93507.22;5062994;28;20036;-86
2022/11/07 06:46:55;;;;;;;53.53;26.50;;;;;;;16.71;49.21;93507.22;5070791;28;20044;-88
2022/11/07 06:49:21;;;;;;;61.30;31.00;;;;;;;16.72;49.16;93511.44;5055042;28;20622;-87
2022/11/07 06:51:46;;;;;;;62.40;33.25;;;;;;;16.73;49.40;93518.38;5047457;28;20032;-86
2022/11/07 06:54:12;;;;;;;72.38;35.13;;;;;;;16.71;49.05;93520.84;5072013;28;20096;-88
2022/11/07 06:56:37;;;;;;;74.60;36.08;;;;;;;16.72;49.40;93520.38;5045099;28;20088;-88
2022/11/07 06:59:03;;;;;;;90.22;38.05;;;;;;;16.71;49.40;93512.66;5037052;28;20422;-90
2022/11/07 07:01:28;;;;;;;100.07;42.85;;;;;;;16.75;49.16;93524.09;5028626;28;20052;-88
2022/11/07 07:03:54;;;;;;;97.55;47.20;;;;;;;16.68;48.96;93530.78;4993204;28;20088;-88
2022/11/07 07:06:19;;;;;;;114.15;46.25;;;;;;;16.71;49.27;93531.78;4983555;28;20129;-87
2022/11/07 07:08:45;;;;;;;105.80;50.38;;;;;;;16.75;49.25;93545.91;4976811;28;20547;-88
2022/11/07 07:11:11;;;;;;;98.00;54.00;;;;;;;16.79;49.90;93530.78;4989732;28;20046;-88
2022/11/07 07:13:37;;;;;;;99.35;55.15;;;;;;;16.85;49.28;93549.16;4993731;28;20030;-87
2022/11/07 07:16:03;;;;;;;119.90;59.60;;;;;;;16.93;49.87;93547.41;4967558;28;20100;-86
2022/11/07 07:18:28;;;;;;;112.05;61.53;;;;;;;16.98;49.67;93549.38;5007121;28;20073;-89
2022/11/07 07:21:05;;;;;;;112.55;59.85;;;;;;;17.00;49.68;93544.19;4976678;28;20057;-87
2022/11/07 07:23:33;;;;;;;100.13;52.40;;;;;;;16.97;49.29;93551.38;4986249;28;20144;-87
2022/11/07 07:26:01;;;;;;;89.82;53.58;;;;;;;16.96;49.02;93549.13;4991544;28;20478;-87
2022/11/07 07:28:26;;;;;;;87.53;49.70;;;;;;;16.92;49.17;93540.44;5012323;28;20103;-87
2022/11/07 07:30:51;;;;;;;84.78;49.10;;;;;;;16.91;49.38;93544.41;4997103;28;20084;-89
2022/11/07 07:33:17;;;;;;;82.28;47.42;;;;;;;16.89;49.35;93546.94;4985071;28;20053;-88
2022/11/07 07:35:42;;;;;;;90.15;51.60;;;;;;;16.84;49.02;93540.22;5036662;28;20035;-88
2022/11/07 07:38:09;;;;;;;82.22;43.25;;;;;;;16.78;48.21;93542.22;5045845;28;20101;-88
2022/11/07 07:40:35;;;;;;;73.47;34.90;;;;;;;16.80;48.00;93545.19;5024835;28;20075;-89
2022/11/07 07:43:01;;;;;;;62.38;34.08;;;;;;;16.77;48.06;93543.44;5087077;28;20047;-88
2022/11/07 07:45:26;;;;;;;89.95;38.40;;;;;;;16.73;48.19;93542.94;5082381;28;20085;-86
2022/11/07 07:47:51;;;;;;;81.20;42.50;;;;;;;16.73;48.72;93538.22;5066592;28;20442;-87
2022/11/07 07:50:17;;;;;;;62.40;34.75;;;;;;;16.74;48.51;93545.19;5035876;28;20411;-87
2022/11/07 07:52:43;;;;;;;67.55;38.15;;;;;;;16.73;49.15;93546.41;5055560;28;20040;-86
2022/11/07 07:55:08;;;;;;;97.28;43.92;;;;;;;16.74;48.87;93545.19;5044222;28;20036;-87
2022/11/07 07:57:43;;;;;;;93.63;46.90;;;;;;;16.77;49.28;93548.91;5052964;28;20043;-87
2022/11/07 08:00:10;;;;;;;113.22;54.67;;;;;;;16.79;49.40;93549.91;5040240;28;20051;-87
2022/11/07 08:02:35;;;;;;;104.05;51.15;;;;;;;16.75;48.95;93535.75;5020344;28;20376;-89
2022/11/07 08:05:01;;;;;;;96.35;47.17;;;;;;;16.76;49.08;93542.69;5051771;28;20538;-88
2022/11/07 08:07:26;;;;;;;87.63;44.05;;;;;;;16.75;49.01;93546.66;5071304;28;20093;-85
2022/11/07 08:09:52;;;;;;;114.70;52.45;;;;;;;16.76;49.10;93542.69;5053094;28;20430;-87
2022/11/07 08:12:17;;;;;;;97.90;49.22;;;;;;;16.77;49.41;93549.66;5053778;28;20427;-86
2022/11/07 08:14:43;;;;;;;94.45;48.50;;;;;;;16.77;49.48;93560.56;5046013;28;20029;-88
2022/11/07 08:17:08;;;;;;;88.30;45.78;;;;;;;16.78;49.15;93569.50;5032998;28;20454;-88
2022/11/07 08:19:34;;;;;;;98.10;45.65;;;;;;;16.79;49.07;93568.25;5035547;28;20209;-85
2022/11/07 08:22:00;;;;;;;80.70;45.08;;;;;;;16.80;49.06;93567.03;5031651;28;20063;-86
2022/11/07 08:24:26;;;;;;;103.38;47.22;;;;;;;16.77;49.54;93579.69;5037912;28;20449;-88
2022/11/07 08:26:52;;;;;;;116.63;53.58;;;;;;;16.81;49.44;93573.22;5057136;28;20047;-89
2022/11/07 08:29:17;;;;;;;127.07;60.90;;;;;;;16.80;49.75;93583.41;5045732;28;20036;-90
2022/11/07 08:31:42;;;;;;;167.10;71.53;;;;;;;16.80;49.52;93577.94;5041124;28;20036;-91
2022/11/07 08:34:08;;;;;;;203.88;88.65;;;;;;;16.79;49.28;93582.66;5057464;28;20447;-90
2022/11/07 08:36:36;;;;;;;195.43;85.00;;;;;;;16.79;49.22;93587.38;5073400;28;20074;-90
2022/11/07 08:39:02;;;;;;;166.57;75.63;;;;;;;16.78;49.06;93586.63;5070288;28;20036;-89
2022/11/07 08:41:27;;;;;;;115.43;49.05;;;;;;;16.76;49.18;93585.63;5065654;28;20082;-87
2022/11/07 08:43:54;;;;;;;113.53;48.88;;;;;;;16.76;49.17;93574.72;5072720;28;20033;-89
2022/11/07 08:46:19;;;;;;;118.40;48.17;;;;;;;16.77;48.93;93578.94;5057664;28;20037;-88
2022/11/07 08:48:44;;;;;;;118.30;52.58;;;;;;;16.78;49.40;93577.69;5054959;28;20054;-88
2022/11/07 08:51:10;;;;;;;129.65;56.35;;;;;;;16.78;48.89;93578.44;5053771;28;20652;-90
2022/11/07 08:53:35;;;;;;;126.50;59.78;;;;;;;16.77;49.37;93574.22;5075035;28;20372;-86
2022/11/07 08:56:02;;;;;;;186.13;76.63;;;;;;;16.78;49.50;93569.50;5076265;28;20047;-88
2022/11/07 08:58:27;;;;;;;175.35;79.38;;;;;;;16.78;49.39;93564.03;5053585;28;20505;-87
2022/11/07 09:00:53;;;;;;;208.60;98.05;;;;;;;16.82;49.39;93583.66;5031856;28;20048;-85
2022/11/07 09:03:18;;;;;;;243.40;114.43;;;;;;;16.80;49.61;93577.94;5060374;28;20047;-86
2022/11/07 09:05:44;;;;;;;239.85;111.40;;;;;;;16.79;49.63;93571.75;5060748;28;20410;-88
2022/11/07 09:08:10;;;;;;;243.50;108.88;;;;;;;16.82;49.54;93574.72;5050853;28;20036;-87
2022/11/07 09:10:36;;;;;;;222.50;106.00;;;;;;;16.84;49.28;93580.44;5087351;28;20044;-89
2022/11/07 09:13:01;;;;;;;229.90;114.57;;;;;;;16.84;49.40;93561.31;5087047;28;20398;-87
2022/11/07 09:15:28;;;;;;;220.13;110.25;;;;;;;16.82;49.33;93567.28;5073165;28;20044;-86
2022/11/07 09:17:53;;;;;;;212.10;103.30;;;;;;;16.83;49.47;93568.75;5052939;28;20487;-86
2022/11/07 09:20:19;;;;;;;219.43;109.78;;;;;;;16.84;49.45;93562.06;5084651;28;20147;-85
2022/11/07 09:22:44;;;;;;;194.77;100.70;;;;;;;16.84;49.24;93569.50;5054881;28;20036;-88
2022/11/07 09:25:10;;;;;;;205.20;106.57;;;;;;;16.83;49.99;93571.50;5070082;28;20032;-86
2022/11/07 09:27:36;;;;;;;196.52;98.57;;;;;;;16.84;49.58;93564.78;5053642;28;20032;-86
2022/11/07 09:30:06;;;;;;;184.50;97.90;;;;;;;16.87;49.65;93573.97;5070939;28;20094;-90
2022/11/07 09:32:31;;;;;;;174.57;93.80;;;;;;;16.87;49.69;93572.00;5050070;28;20063;-89
2022/11/07 09:34:57;;;;;;;172.40;93.75;;;;;;;16.91;49.64;93572.47;5064622;28;20032;-86
2022/11/07 09:37:22;;;;;;;165.85;92.00;;;;;;;16.90;49.78;93576.44;5053847;28;20043;-91
2022/11/07 09:39:48;;;;;;;198.52;97.40;;;;;;;16.89;49.66;93569.50;5074107;28;20051;-90
2022/11/07 09:42:47;;;;;;;179.07;95.32;;;;;;;16.90;49.85;93576.44;5062938;28;20047;-89
2022/11/07 09:45:12;;;;;;;138.90;72.78;;;;;;;16.87;49.54;93568.53;5086281;28;20135;-87
2022/11/07 09:47:47;;;;;;;134.82;61.92;;;;;;;16.86;49.69;93575.22;5057157;28;20133;-85
2022/11/07 09:50:18;;;;;;;157.52;78.15;;;;;;;16.87;49.42;93582.19;5074922;28;20040;-88
2022/11/07 09:52:57;;;;;;;148.40;72.07;;;;;;;16.86;49.57;93567.78;5098786;28;20120;-88
2022/11/07 09:55:27;;;;;;;141.73;70.75;;;;;;;16.86;49.58;93573.25;5060315;28;20499;-88
2022/11/07 09:57:55;;;;;;;140.02;72.00;;;;;;;16.87;49.77;93569.28;5060802;28;20101;-89
2022/11/07 10:00:21;;;;;;;144.70;76.22;;;;;;;16.91;50.11;93574.47;5074043;28;20111;-90
2022/11/07 10:02:54;;;;;;;143.40;83.53;;;;;;;16.91;49.91;93572.47;5073676;28;20659;-90
2022/11/07 10:05:45;;;;;;;161.40;90.47;;;;;;;16.90;49.74;93573.72;5076312;28;20490;-88
2022/11/07 10:08:40;;;;;;;173.07;93.72;;;;;;;16.94;49.44;93571.47;5092607;28;20048;-88
2022/11/07 10:11:11;;;;;;;169.23;95.38;;;;;;;16.94;49.97;93573.47;5085228;28;20051;-89
2022/11/07 10:13:46;;;;;;;162.70;83.28;;;;;;;16.95;49.92;93577.69;5085336;28;20141;-87
2022/11/07 10:16:12;;;;;;;159.85;84.75;;;;;;;16.90;49.68;93575.69;5091822;28;20040;-88
2022/11/07 10:19:01;;;;;;;148.32;76.80;;;;;;;16.87;49.64;93563.81;5092103;28;20457;-88
2022/11/07 10:21:37;;;;;;;133.35;70.38;;;;;;;16.89;49.43;93560.59;5069841;28;20047;-88
2022/11/07 10:24:22;;;;;;;114.95;47.92;;;;;;;16.85;50.03;93566.28;5073700;28;20047;-87
2022/11/07 10:26:48;;;;;;;62.78;36.33;;;;;;;16.82;49.94;93572.00;5090395;28;20047;-89
2022/11/07 10:29:20;;;;;;;78.53;39.67;;;;;;;16.81;49.89;93565.03;5048411;28;20117;-87
2022/11/07 10:31:50;;;;;;;108.18;49.50;;;;;;;16.79;50.21;93566.28;5067332;28;20097;-87
2022/11/07 10:34:35;;;;;;;91.85;51.70;;;;;;;16.81;49.91;93567.78;5074377;28;20042;-86
2022/11/07 10:37:00;;;;;;;95.47;47.42;;;;;;;16.83;49.70;93566.03;5064570;28;20452;-88
2022/11/07 10:39:27;;;;;;;73.22;37.08;;;;;;;16.86;49.96;93569.75;5084870;28;20701;-87
2022/11/07 10:42:05;;;;;;;100.07;37.58;;;;;;;16.83;49.72;93559.84;5052154;28;20038;-87
2022/11/07 10:44:31;;;;;;;90.82;31.70;;;;;;;16.83;49.78;93552.38;5095865;28;20506;-89
2022/11/07 10:47:01;;;;;;;66.00;26.05;;;;;;;16.82;50.26;93561.06;5051835;28;20040;-89
2022/11/07 10:49:27;;;;;;;59.67;28.42;;;;;;;16.82;49.99;93564.53;5055248;28;20036;-89
2022/11/07 10:51:54;;;;;;;95.15;33.60;;;;;;;16.81;50.04;93554.88;5056385;28;20035;-92
2022/11/07 10:54:20;;;;;;;78.47;33.70;;;;;;;16.83;50.25;93548.91;5043399;28;20041;-87
2022/11/07 10:56:49;;;;;;;95.05;44.72;;;;;;;16.84;50.36;93559.34;5071312;28;20051;-90
2022/11/07 10:59:24;;;;;;;98.60;42.83;;;;;;;16.90;50.23;93556.59;5049288;28;21001;-90
2022/11/07 11:01:51;;;;;;;115.25;54.17;;;;;;;16.91;50.33;93556.09;5039649;28;20040;-88
2022/11/07 11:04:25;;;;;;;157.48;68.43;;;;;;;16.93;50.12;93561.81;5048238;28;20055;-85
2022/11/07 11:07:02;;;;;;;186.07;87.90;;;;;;;16.89;50.30;93544.91;5056041;28;20466;-90
2022/11/07 11:09:34;;;;;;;183.43;96.30;;;;;;;16.91;50.04;93558.06;5072756;28;20549;-88
2022/11/07 11:12:11;;;;;;;181.68;98.45;;;;;;;16.91;50.36;93549.88;5058851;28;20048;-90
2022/11/07 11:14:38;;;;;;;193.93;99.22;;;;;;;16.93;50.48;93553.59;5071744;28;20035;-90
2022/11/07 11:17:04;;;;;;;160.32;91.90;;;;;;;16.96;50.12;93549.88;5057132;28;20048;-88
2022/11/07 11:19:39;;;;;;;173.85;103.65;;;;;;;16.97;49.92;93547.91;5042882;28;20059;-89
2022/11/07 11:22:16;;;;;;;331.23;243.27;;;;;;;16.95;50.56;93545.66;5041706;28;20112;-88
2022/11/07 11:24:42;;;;;;;325.27;253.07;;;;;;;16.98;49.81;93544.66;5076445;28;20032;-86
2022/11/07 11:27:08;;;;;;;165.85;100.90;;;;;;;16.98;50.01;93530.28;5081948;28;20040;-86
2022/11/07 11:29:38;;;;;;;160.77;95.90;;;;;;;16.97;49.79;93537.72;5106954;28;20031;-87
2022/11/07 11:32:03;;;;;;;134.13;85.85;;;;;;;16.98;50.17;93538.47;5046797;28;20044;-87